Time;durP1;ratioP1;P1;durP2;ratioP2;P2;SDS_P1;SDS_P2;PMS_P1;PMS_P2;Temp;Humidity;BMP_temperature;BMP_pressure;BME280_temperature;BME280_humidity;BME280_pressure;Samples;Min_cycle;Max_cycle;Signal;HPM_P1;HPM_P2
2021/11/01 00:02:13;;;;;;;8.25;1.85;;;12.90;99.90;;;;;;5065342;28;20029;-81
2021/11/01 00:04:43;;;;;;;4.13;1.52;;;12.90;99.90;;;;;;5069548;28;20028;-81
2021/11/01 00:07:09;;;;;;;11.70;1.70;;;14.00;99.90;;;;;;5067714;28;20044;-83
2021/11/01 00:09:34;;;;;;;5.32;1.20;;;13.50;99.90;;;;;;5071860;28;20088;-84
2021/11/01 00:12:00;;;;;;;3.22;1.38;;;13.00;99.90;;;;;;5073339;28;20032;-80
2021/11/01 00:14:26;;;;;;;5.68;1.85;;;12.90;99.90;;;;;;5068436;28;20486;-83
2021/11/01 00:16:51;;;;;;;7.57;1.88;;;12.90;99.90;;;;;;5069554;28;20478;-82
2021/11/01 00:19:17;;;;;;;3.83;1.40;;;13.00;99.90;;;;;;5069616;28;20104;-84
2021/11/01 00:21:44;;;;;;;10.02;2.50;;;13.00;99.90;;;;;;5067009;28;20021;-80
2021/11/01 00:24:09;;;;;;;5.68;1.48;;;13.00;99.90;;;;;;5067396;28;20581;-84
2021/11/01 00:26:35;;;;;;;5.85;1.75;;;13.00;99.90;;;;;;5070336;28;20040;-80
2021/11/01 00:29:03;;;;;;;4.85;1.33;;;13.00;99.90;;;;;;5069406;28;20037;-79
2021/11/01 00:31:30;;;;;;;4.72;1.45;;;13.00;99.90;;;;;;5086529;28;20048;-81
2021/11/01 00:33:57;;;;;;;6.28;1.42;;;13.00;99.90;;;;;;5071761;28;20590;-84
2021/11/01 00:36:23;;;;;;;6.30;1.10;;;13.00;99.90;;;;;;5084828;28;20020;-81
2021/11/01 00:38:50;;;;;;;7.45;1.70;;;12.90;99.90;;;;;;5072606;28;20475;-80
2021/11/01 00:41:16;;;;;;;5.32;1.35;;;12.90;99.90;;;;;;5067861;28;20428;-85
2021/11/01 00:43:41;;;;;;;3.33;1.08;;;12.90;99.90;;;;;;5073784;28;20033;-81
2021/11/01 00:46:09;;;;;;;7.55;2.10;;;12.90;99.90;;;;;;5070640;28;20036;-82
2021/11/01 00:48:34;;;;;;;6.03;1.10;;;12.80;99.90;;;;;;5065787;28;20028;-84
2021/11/01 00:51:00;;;;;;;3.35;1.48;;;12.80;99.90;;;;;;5067630;28;20036;-81
2021/11/01 00:53:34;;;;;;;4.55;1.60;;;12.70;99.90;;;;;;5065753;28;20020;-82
2021/11/01 00:56:01;;;;;;;3.47;1.10;;;12.80;99.90;;;;;;5066786;28;20024;-81
2021/11/01 00:58:27;;;;;;;4.70;1.25;;;12.70;99.90;;;;;;5090441;28;20083;-84
2021/11/01 01:00:54;;;;;;;3.55;1.42;;;12.70;99.90;;;;;;5087097;28;20096;-81
2021/11/01 01:03:21;;;;;;;6.03;1.25;;;12.70;99.90;;;;;;5086075;28;20040;-80
2021/11/01 01:05:48;;;;;;;3.92;1.20;;;12.70;99.90;;;;;;5069550;28;20047;-79
2021/11/01 01:08:16;;;;;;;9.80;2.22;;;12.70;99.90;;;;;;5069629;28;20441;-80
2021/11/01 01:10:44;;;;;;;4.43;1.17;;;12.60;99.90;;;;;;5070329;28;20016;-83
2021/11/01 01:13:11;;;;;;;8.10;1.50;;;12.60;99.90;;;;;;5082415;28;20210;-81
2021/11/01 01:15:43;;;;;;;7.75;1.75;;;13.20;99.90;;;;;;5069868;28;20027;-84
2021/11/01 01:18:15;;;;;;;7.18;2.25;;;12.70;99.90;;;;;;5071018;28;20054;-84
2021/11/01 01:20:42;;;;;;;6.93;1.90;;;12.50;99.90;;;;;;5070818;28;20124;-85
2021/11/01 01:23:07;;;;;;;3.53;1.48;;;13.90;99.90;;;;;;5067041;28;20020;-83
2021/11/01 01:25:50;;;;;;;4.57;1.15;;;12.60;99.90;;;;;;5070372;28;20052;-85
2021/11/01 01:28:18;;;;;;;3.65;1.25;;;12.50;99.90;;;;;;5059092;28;20032;-81
2021/11/01 01:30:44;;;;;;;6.32;1.67;;;12.40;99.90;;;;;;5069726;28;20032;-82
2021/11/01 01:33:10;;;;;;;5.20;2.33;;;12.50;99.90;;;;;;5071844;28;20063;-85
2021/11/01 01:35:40;;;;;;;5.97;1.40;;;12.40;99.90;;;;;;5066478;28;20036;-82
2021/11/01 01:38:11;;;;;;;3.50;1.20;;;12.40;99.90;;;;;;5070814;28;20028;-85
2021/11/01 01:40:37;;;;;;;7.68;2.00;;;12.40;99.90;;;;;;5072710;28;20043;-83
2021/11/01 01:43:04;;;;;;;5.38;1.20;;;12.40;99.90;;;;;;5062408;28;20024;-82
2021/11/01 01:45:34;;;;;;;5.30;1.40;;;12.40;99.90;;;;;;5069163;28;20273;-80
2021/11/01 01:48:00;;;;;;;5.60;1.38;;;12.40;99.90;;;;;;5067857;28;20028;-81
2021/11/01 01:50:26;;;;;;;5.28;1.20;;;12.40;99.90;;;;;;5071647;28;20044;-83
2021/11/01 01:52:53;;;;;;;3.92;1.10;;;12.30;99.90;;;;;;5068495;28;20065;-83
2021/11/01 01:55:20;;;;;;;5.40;1.48;;;12.30;99.90;;;;;;5070660;28;20028;-83
2021/11/01 01:57:46;;;;;;;5.00;1.23;;;12.30;99.90;;;;;;5067779;28;20029;-83
2021/11/01 02:02:47;;;;;;;4.82;1.08;;;12.30;99.90;;;;;;5066993;28;20107;-83
2021/11/01 02:05:14;;;;;;;5.15;1.10;;;12.30;99.90;;;;;;5067090;28;20025;-83
2021/11/01 02:07:57;;;;;;;3.63;0.90;;;12.90;99.90;;;;;;5069743;28;20100;-85
2021/11/01 02:10:29;;;;;;;5.40;1.23;;;13.80;99.90;;;;;;5070214;28;20547;-82
2021/11/01 02:13:05;;;;;;;3.97;1.20;;;12.20;99.90;;;;;;5084131;28;20253;-82
2021/11/01 02:15:34;;;;;;;5.32;1.40;;;12.10;99.90;;;;;;5069358;28;20109;-79
2021/11/01 02:18:01;;;;;;;7.82;1.23;;;12.10;99.90;;;;;;5080420;28;20037;-81
2021/11/01 02:20:38;;;;;;;5.47;1.40;;;12.80;99.90;;;;;;5065993;28;20029;-82
2021/11/01 02:23:21;;;;;;;5.32;1.15;;;12.10;99.90;;;;;;5084267;28;20032;-82
2021/11/01 02:26:14;;;;;;;6.93;1.20;;;12.10;99.90;;;;;;5084542;28;20025;-82
2021/11/01 02:28:41;;;;;;;4.32;1.30;;;12.10;99.90;;;;;;5069905;28;20037;-84
2021/11/01 02:31:11;;;;;;;7.68;1.40;;;12.10;99.90;;;;;;5075699;28;20484;-83
2021/11/01 02:33:38;;;;;;;7.15;1.42;;;12.10;99.90;;;;;;5057182;28;20214;-81
2021/11/01 02:36:05;;;;;;;4.20;1.40;;;;;;;;;;5056038;28;20070;-82
2021/11/01 02:38:31;;;;;;;9.45;2.58;;;;;;;;;;5071521;28;20029;-81
2021/11/01 02:40:58;;;;;;;8.32;1.42;;;;;;;;;;5073721;28;20100;-82
2021/11/01 02:43:26;;;;;;;6.47;1.42;;;12.10;99.90;;;;;;5069024;28;20024;-84
2021/11/01 02:45:52;;;;;;;6.25;1.55;;;;;;;;;;5074126;28;20031;-80
2021/11/01 02:48:18;;;;;;;6.13;1.60;;;12.00;99.90;;;;;;5068795;28;20110;-80
2021/11/01 02:50:44;;;;;;;5.88;1.50;;;;;;;;;;5068856;28;20032;-82
2021/11/01 02:53:10;;;;;;;5.50;1.40;;;12.10;99.90;;;;;;5073512;28;20037;-84
2021/11/01 02:55:36;;;;;;;6.95;1.38;;;;;;;;;;5068671;28;20539;-79
2021/11/01 02:58:02;;;;;;;5.05;1.50;;;;;;;;;;5072168;28;20089;-80
2021/11/01 03:00:29;;;;;;;8.82;2.10;;;12.20;99.90;;;;;;5066419;28;20032;-81
2021/11/01 03:02:55;;;;;;;11.90;2.38;;;;;;;;;;5075349;28;20020;-84
2021/11/01 03:05:24;;;;;;;6.57;2.17;;;12.30;99.90;;;;;;5078033;28;20058;-83
2021/11/01 03:07:52;;;;;;;8.80;1.90;;;12.20;99.90;;;;;;5070713;28;20021;-79
2021/11/01 03:10:19;;;;;;;7.63;1.90;;;12.30;99.90;;;;;;5070695;28;20024;-80
2021/11/01 03:12:48;;;;;;;7.18;2.38;;;12.30;99.90;;;;;;5069053;28;20067;-82
2021/11/01 03:15:24;;;;;;;5.60;1.50;;;12.30;99.90;;;;;;5070189;28;20120;-84
2021/11/01 03:18:00;;;;;;;14.43;3.13;;;12.40;99.90;;;;;;5074923;28;20024;-85
2021/11/01 03:20:29;;;;;;;6.50;1.95;;;12.40;99.90;;;;;;5072984;28;20023;-88
2021/11/01 03:22:59;;;;;;;7.20;1.77;;;12.30;99.90;;;;;;5074054;28;20016;-81
2021/11/01 03:25:33;;;;;;;9.33;1.70;;;12.30;99.90;;;;;;5069862;28;20087;-84
2021/11/01 03:28:01;;;;;;;9.82;2.30;;;12.30;99.90;;;;;;5073603;28;20032;-85
2021/11/01 03:30:28;;;;;;;6.53;1.65;;;12.20;99.90;;;;;;5070807;28;20485;-85
2021/11/01 03:32:55;;;;;;;7.80;2.05;;;12.20;99.90;;;;;;5071992;28;20043;-84
2021/11/01 03:35:24;;;;;;;6.75;2.10;;;12.20;99.90;;;;;;5069573;28;20025;-85
2021/11/01 03:37:52;;;;;;;6.78;2.20;;;13.40;99.90;;;;;;5071597;28;20035;-85
2021/11/01 03:40:20;;;;;;;12.82;1.75;;;12.30;99.90;;;;;;5073433;28;20029;-83
2021/11/01 03:42:52;;;;;;;7.22;1.70;;;;;;;;;;5067763;28;20021;-85
2021/11/01 03:45:19;;;;;;;7.78;1.50;;;;;;;;;;5064466;28;20131;-86
2021/11/01 03:47:47;;;;;;;7.05;1.50;;;;;;;;;;5064978;28;20882;-87
2021/11/01 03:52:53;;;;;;;8.63;1.50;;;12.30;99.90;;;;;;5063159;28;20028;-85
2021/11/01 03:55:21;;;;;;;5.90;1.65;;;12.30;99.90;;;;;;5067032;28;20033;-83
2021/11/01 03:57:48;;;;;;;6.07;1.65;;;12.20;99.90;;;;;;5065605;28;20025;-82
2021/11/01 04:00:15;;;;;;;12.00;2.25;;;12.20;99.90;;;;;;5064615;28;20016;-85
2021/11/01 04:02:44;;;;;;;9.52;1.80;;;12.00;99.90;;;;;;5069139;28;20027;-84
2021/11/01 04:05:10;;;;;;;9.07;1.55;;;11.70;99.90;;;;;;5069219;28;20036;-84
2021/11/01 04:07:36;;;;;;;11.25;2.17;;;;;;;;;;5065157;28;20025;-84
2021/11/01 04:10:03;;;;;;;8.50;1.70;;;11.90;99.90;;;;;;5069805;28;20405;-87
2021/11/01 04:12:29;;;;;;;9.30;1.67;;;;;;;;;;5066326;28;20033;-86
2021/11/01 04:15:01;;;;;;;11.73;3.30;;;12.00;99.90;;;;;;5068924;28;20083;-84
2021/11/01 04:17:43;;;;;;;8.95;1.75;;;;;;;;;;5069517;28;20024;-85
2021/11/01 04:22:40;;;;;;;10.38;1.95;;;;;;;;;;5070809;28;20485;-82
2021/11/01 04:25:06;;;;;;;10.07;1.73;;;12.00;99.90;;;;;;5067250;28;20040;-84
2021/11/01 04:27:32;;;;;;;9.50;1.77;;;;;;;;;;5068201;28;20032;-82
2021/11/01 04:30:00;;;;;;;10.45;1.90;;;;;;;;;;5068123;28;20032;-85
2021/11/01 04:37:43;;;;;;;9.90;2.35;;;;;;;;;;5067249;28;20029;-85
2021/11/01 04:54:06;;;;;;;9.77;1.98;;;11.90;99.90;;;;;;5071595;28;20547;-84
2021/11/01 04:56:32;;;;;;;10.13;2.15;;;11.90;99.90;;;;;;5065058;28;20029;-83
2021/11/01 04:58:58;;;;;;;9.63;2.17;;;11.90;99.90;;;;;;5065311;28;20024;-83
2021/11/01 05:01:33;;;;;;;8.02;1.88;;;11.90;99.90;;;;;;5066048;28;20028;-84
2021/11/01 05:04:03;;;;;;;11.85;3.45;;;11.90;99.90;;;;;;5068630;28;20032;-79
2021/11/01 05:06:29;;;;;;;5.45;1.60;;;11.90;99.90;;;;;;5086246;28;20025;-81
2021/11/01 05:09:04;;;;;;;6.30;2.05;;;11.90;99.90;;;;;;5065667;28;20071;-82
2021/11/01 05:12:18;;;;;;;8.65;1.83;;;11.80;99.90;;;;;;5068885;28;20092;-84
2021/11/01 05:14:28;;;;;;;6.88;1.90;;;11.80;99.90;;;;;;5057984;28;20038;-84
2021/11/01 05:17:22;;;;;;;10.60;1.58;;;12.40;99.90;;;;;;5069604;28;20043;-81
2021/11/01 05:22:31;;;;;;;7.95;1.73;;;11.70;99.90;;;;;;5076002;28;20509;-84
2021/11/01 05:25:03;;;;;;;6.22;1.65;;;;;;;;;;5067277;28;20033;-81
2021/11/01 05:30:12;;;;;;;9.32;1.88;;;;;;;;;;5064770;28;20025;-85
2021/11/01 05:32:41;;;;;;;8.35;1.63;;;11.80;99.90;;;;;;5061489;28;20042;-82
2021/11/01 05:35:07;;;;;;;7.97;2.00;;;11.80;99.90;;;;;;5086203;28;20578;-84
2021/11/01 05:37:34;;;;;;;7.95;1.77;;;11.70;99.90;;;;;;5069603;28;20123;-84
2021/11/01 05:39:59;;;;;;;5.75;1.60;;;11.70;99.90;;;;;;5072633;28;20054;-82
2021/11/01 05:42:25;;;;;;;12.10;1.85;;;11.50;99.90;;;;;;5074077;28;20111;-82
2021/11/01 05:44:51;;;;;;;12.43;1.80;;;12.30;99.90;;;;;;5067368;28;20243;-83
2021/11/01 05:47:17;;;;;;;9.00;1.90;;;11.60;99.90;;;;;;5065925;28;20029;-82
2021/11/01 05:49:43;;;;;;;11.13;2.00;;;11.60;99.90;;;;;;5074898;28;20490;-84
2021/11/01 05:52:18;;;;;;;9.15;1.83;;;12.40;99.90;;;;;;5068086;28;20025;-85
2021/11/01 05:54:44;;;;;;;9.80;2.20;;;11.50;99.90;;;;;;5087277;28;20405;-84
2021/11/01 05:57:19;;;;;;;8.80;1.70;;;11.50;99.90;;;;;;5067775;28;20032;-85
2021/11/01 06:02:46;;;;;;;10.75;1.92;;;11.50;99.90;;;;;;5067699;28;20074;-83
2021/11/01 06:13:29;;;;;;;9.85;1.73;;;11.40;99.90;;;;;;5062441;28;20012;-87
2021/11/01 06:15:57;;;;;;;6.75;1.60;;;11.40;99.90;;;;;;5072594;28;20021;-81
2021/11/01 06:18:30;;;;;;;9.98;2.08;;;11.40;99.90;;;;;;5063512;28;20112;-81
2021/11/01 06:20:56;;;;;;;11.57;1.80;;;11.40;99.90;;;;;;5069564;28;20046;-81
2021/11/01 06:23:23;;;;;;;9.30;1.52;;;11.40;99.90;;;;;;5069579;28;20032;-82
2021/11/01 06:25:51;;;;;;;14.93;2.00;;;11.40;99.90;;;;;;5063205;28;20032;-83
2021/11/01 06:28:17;;;;;;;11.23;1.60;;;11.30;99.90;;;;;;5069612;28;20028;-83
2021/11/01 06:30:51;;;;;;;16.27;1.75;;;11.40;99.90;;;;;;5067746;28;20032;-83
2021/11/01 06:44:25;;;;;;;8.80;1.65;;;11.00;99.90;;;;;;5067015;28;20117;-83
2021/11/01 06:49:58;;;;;;;6.88;1.55;;;11.10;99.90;;;;;;5071988;28;20028;-81
2021/11/01 06:55:23;;;;;;;6.72;1.50;;;11.10;99.90;;;;;;5071146;28;20047;-81
2021/11/01 07:16:57;;;;;;;13.20;2.47;;;11.10;99.90;;;;;;5071159;28;20028;-81
2021/11/01 07:30:12;;;;;;;7.55;2.40;;;11.00;99.90;;;;;;5069556;28;20038;-81
2021/11/01 08:38:10;;;;;;;26.08;4.30;;;11.50;99.90;;;;;;5064253;28;20032;-86
2021/11/01 09:04:42;;;;;;;10.93;2.17;;;12.50;99.90;;;;;;5069905;28;20033;-85
2021/11/01 09:20:41;;;;;;;12.27;2.00;;;12.70;99.90;;;;;;5068284;28;20159;-82
2021/11/01 09:35:42;;;;;;;8.07;1.90;;;12.80;99.90;;;;;;5070439;28;20043;-85
2021/11/01 09:36:23;;;;;;;10.60;2.15;;;12.90;99.90;;;;;;5073033;28;20062;-83
2021/11/01 09:39:18;;;;;;;10.88;2.30;;;13.00;99.90;;;;;;5068046;28;20020;-83
2021/11/01 09:41:44;;;;;;;9.52;2.70;;;13.10;99.90;;;;;;5064799;28;20071;-84
2021/11/01 09:44:16;;;;;;;10.85;1.88;;;13.20;99.90;;;;;;5063681;28;20339;-80
2021/11/01 09:46:42;;;;;;;10.48;2.35;;;13.20;99.90;;;;;;5063603;28;20098;-85
2021/11/01 09:51:37;;;;;;;7.28;1.98;;;13.30;99.90;;;;;;5067168;28;20028;-87
2021/11/01 09:54:05;;;;;;;10.23;2.10;;;13.50;99.90;;;;;;5077881;28;20028;-85
2021/11/01 09:56:56;;;;;;;9.13;2.50;;;13.50;99.90;;;;;;5065433;28;20032;-84
2021/11/01 09:59:24;;;;;;;9.27;1.73;;;13.60;99.90;;;;;;5068522;28;20646;-86
2021/11/01 10:01:52;;;;;;;10.13;2.33;;;13.60;99.90;;;;;;5060606;28;20024;-82
2021/11/01 10:04:30;;;;;;;11.65;2.22;;;13.60;99.90;;;;;;5062232;28;20051;-81
2021/11/01 10:07:30;;;;;;;5.72;1.80;;;13.40;99.90;;;;;;5061103;28;20028;-82
2021/11/01 10:10:05;;;;;;;8.07;2.15;;;13.40;99.90;;;;;;5055880;28;20031;-80
2021/11/01 10:12:35;;;;;;;7.57;2.05;;;13.50;99.90;;;;;;5076159;28;20024;-83
2021/11/01 10:18:12;;;;;;;8.35;2.63;;;13.70;99.90;;;;;;5060099;28;20047;-83
2021/11/01 10:20:53;;;;;;;5.85;1.88;;;13.60;99.90;;;;;;5062217;28;20028;-84
2021/11/01 10:23:23;;;;;;;11.80;2.30;;;13.60;99.90;;;;;;5064550;28;20079;-83
2021/11/01 10:26:06;;;;;;;11.00;1.90;;;13.60;99.90;;;;;;5084218;28;20444;-83
2021/11/01 10:28:32;;;;;;;12.25;2.58;;;14.50;99.90;;;;;;5066497;28;20044;-83
2021/11/01 10:31:13;;;;;;;7.72;1.95;;;13.90;99.90;;;;;;5065907;28;20033;-83
2021/11/01 10:33:44;;;;;;;;;;;13.90;99.90;;;;;;5077383;28;20031;-86
2021/11/01 10:36:29;;;;;;;8.00;1.90;;;14.00;99.90;;;;;;5082798;28;19927;-86
2021/11/01 10:39:11;;;;;;;10.80;2.28;;;14.10;99.90;;;;;;5083916;28;20100;-86
2021/11/01 10:42:01;;;;;;;6.55;1.70;;;14.30;99.90;;;;;;5080247;28;20037;-82
2021/11/01 10:45:26;;;;;;;6.50;2.15;;;14.20;99.90;;;;;;5069751;28;20034;-83
2021/11/01 11:12:52;;;;;;;4.03;1.50;;;15.20;99.90;;;;;;5072383;28;20039;-83
2021/11/01 11:15:18;;;;;;;5.20;1.40;;;14.90;99.90;;;;;;5075655;28;20032;-85
2021/11/01 11:18:06;;;;;;;6.65;1.58;;;14.80;99.90;;;;;;5072434;28;20470;-82
2021/11/01 11:48:34;;;;;;;7.35;1.33;;;14.70;99.90;;;;;;5071745;28;20051;-82
2021/11/01 11:51:09;;;;;;;4.65;1.30;;;14.60;99.90;;;;;;5071733;28;20074;-84
2021/11/01 11:54:08;;;;;;;6.75;1.27;;;14.50;99.90;;;;;;5091537;28;20393;-81
2021/11/01 11:56:38;;;;;;;7.70;1.10;;;14.50;99.90;;;;;;5037564;28;20051;-81
2021/11/01 11:59:06;;;;;;;2.13;0.80;;;14.80;99.90;;;;;;5074823;28;20028;-82
2021/11/01 12:01:37;;;;;;;10.93;1.60;;;14.40;99.90;;;;;;5072511;28;20478;-80
2021/11/01 12:04:19;;;;;;;6.68;1.50;;;14.40;99.90;;;;;;5067189;28;20123;-84
2021/11/01 12:07:06;;;;;;;4.05;1.40;;;13.90;99.90;;;;;;5059862;28;20103;-85
2021/11/01 12:09:45;;;;;;;6.75;1.55;;;14.50;99.90;;;;;;5087889;28;20024;-81
2021/11/01 12:17:28;;;;;;;5.10;0.98;;;15.40;99.90;;;;;;5071271;28;20455;-84
2021/11/01 12:20:08;;;;;;;3.88;0.90;;;14.70;99.90;;;;;;5067429;28;20024;-82
2021/11/01 12:22:41;;;;;;;4.30;1.08;;;14.40;99.90;;;;;;5067433;28;20027;-81
2021/11/01 12:25:14;;;;;;;4.68;1.38;;;14.10;99.90;;;;;;5073934;28;20066;-83
2021/11/01 12:27:44;;;;;;;4.03;0.82;;;13.90;99.90;;;;;;5070690;28;20032;-82
2021/11/01 12:30:12;;;;;;;2.58;1.00;;;13.80;99.90;;;;;;5074310;28;20055;-81
2021/11/01 12:32:40;;;;;;;4.35;0.82;;;13.60;99.90;;;;;;5074271;28;20037;-84
2021/11/01 12:35:15;;;;;;;2.90;1.00;;;13.50;99.90;;;;;;5074027;28;20144;-80
2021/11/01 12:37:50;;;;;;;5.85;1.48;;;13.50;99.90;;;;;;5076009;28;20021;-81
2021/11/01 12:57:27;;;;;;;5.97;1.90;;;12.80;99.90;;;;;;5074696;28;20401;-83
2021/11/01 12:59:53;;;;;;;4.60;1.60;;;13.00;99.90;;;;;;5071227;28;20041;-83
2021/11/01 13:02:26;;;;;;;5.07;1.50;;;12.90;99.90;;;;;;5069788;28;20025;-88
2021/11/01 13:04:53;;;;;;;3.67;1.50;;;12.90;99.90;;;;;;5073493;28;20029;-83
2021/11/01 13:10:07;;;;;;;3.88;1.23;;;13.90;99.90;;;;;;5080942;28;20540;-84
2021/11/01 13:13:14;;;;;;;4.00;1.35;;;13.00;99.90;;;;;;5080250;28;20025;-81
2021/11/01 13:18:11;;;;;;;4.28;1.15;;;13.20;99.90;;;;;;5072292;28;20111;-82
2021/11/01 13:20:41;;;;;;;4.60;1.00;;;13.30;99.90;;;;;;5077655;28;20456;-80
2021/11/01 13:23:12;;;;;;;4.63;1.00;;;13.20;99.90;;;;;;5071513;28;20123;-82
2021/11/01 13:37:16;;;;;;;3.70;1.40;;;13.20;99.90;;;;;;5073715;28;20044;-83
2021/11/01 13:39:42;;;;;;;4.47;1.10;;;;;;;;;;5071321;28;20390;-86
2021/11/01 13:42:14;;;;;;;6.45;1.27;;;13.40;99.90;;;;;;5070328;28;20021;-88
2021/11/01 13:44:40;;;;;;;2.30;1.00;;;13.40;99.90;;;;;;5083747;28;20028;-84
2021/11/01 13:47:07;;;;;;;3.95;1.48;;;14.40;99.90;;;;;;5070845;28;20021;-80
2021/11/01 13:49:36;;;;;;;2.65;1.30;;;13.40;99.90;;;;;;5071107;28;20111;-84
2021/11/01 13:55:02;;;;;;;4.72;1.30;;;13.60;99.90;;;;;;5067964;28;20031;-83
2021/11/01 13:57:37;;;;;;;3.42;1.13;;;13.80;99.90;;;;;;5083173;28;20538;-85
2021/11/01 14:13:38;;;;;;;8.70;2.80;;;14.00;99.90;;;;;;5084964;28;20039;-82
2021/11/01 15:17:25;;;;;;;3.15;1.10;;;13.10;99.90;;;;;;5072593;28;20524;-84
2021/11/01 15:25:39;;;;;;;3.30;1.05;;;13.00;99.90;;;;;;5068253;28;20036;-80
2021/11/01 15:31:25;;;;;;;5.28;1.30;;;12.90;99.90;;;;;;5072809;28;20109;-83
2021/11/01 15:33:59;;;;;;;2.70;0.82;;;12.90;99.90;;;;;;5065890;28;20017;-82
2021/11/01 15:39:22;;;;;;;5.68;1.52;;;12.70;99.90;;;;;;5068155;28;20060;-85
2021/11/01 16:20:08;;;;;;;5.25;2.25;;;12.00;99.90;;;;;;5068545;28;20125;-83
2021/11/01 16:22:36;;;;;;;8.07;3.20;;;11.90;99.90;;;;;;5066110;28;20080;-82
2021/11/01 16:25:02;;;;;;;5.30;2.53;;;11.90;99.90;;;;;;5061716;28;20478;-83
2021/11/01 16:27:29;;;;;;;4.10;1.63;;;11.80;99.90;;;;;;5066240;28;20279;-79
2021/11/01 16:32:32;;;;;;;12.85;5.55;;;11.80;99.90;;;;;;5064866;28;20029;-85
2021/11/01 16:35:04;;;;;;;7.90;3.90;;;11.80;99.90;;;;;;5066223;28;20028;-80
2021/11/01 16:37:43;;;;;;;9.98;3.88;;;11.80;99.90;;;;;;5063460;28;20024;-83
2021/11/01 16:40:11;;;;;;;5.72;1.70;;;11.70;99.90;;;;;;5063439;28;21339;-83
2021/11/01 16:42:39;;;;;;;6.38;2.33;;;11.70;99.90;;;;;;5062738;28;20450;-80
2021/11/01 16:47:44;;;;;;;4.55;1.65;;;11.70;99.90;;;;;;5064673;28;20043;-83
2021/11/01 16:50:12;;;;;;;5.50;1.98;;;11.60;99.90;;;;;;5061972;28;20043;-80
2021/11/01 16:52:39;;;;;;;4.78;1.70;;;11.90;99.90;;;;;;5062526;28;20024;-80
2021/11/01 16:55:13;;;;;;;6.82;1.67;;;11.60;99.90;;;;;;5059789;28;20029;-80
2021/11/01 16:57:47;;;;;;;3.97;1.80;;;11.50;99.90;;;;;;5055674;28;20571;-80
2021/11/01 17:06:24;;;;;;;5.65;1.83;;;11.50;99.90;;;;;;5070273;28;20039;-81
2021/11/01 17:24:51;;;;;;;3.63;1.60;;;11.40;99.90;;;;;;5063576;28;20052;-80
2021/11/01 17:27:36;;;;;;;4.32;1.70;;;11.40;99.90;;;;;;5064985;28;20037;-81
2021/11/01 18:45:07;;;;;;;7.18;3.90;;;10.30;99.90;;;;;;5063977;28;20056;-78
2021/11/01 18:53:10;;;;;;;7.07;3.63;;;10.60;99.90;;;;;;5068849;28;20105;-80
2021/11/01 18:55:37;;;;;;;11.18;7.47;;;10.30;99.90;;;;;;5065672;28;20106;-78
2021/11/01 18:58:06;;;;;;;7.85;3.60;;;10.40;99.90;;;;;;5063126;28;20504;-82
2021/11/01 19:00:42;;;;;;;6.38;3.00;;;10.40;99.90;;;;;;5065746;28;20020;-80
2021/11/01 19:03:09;;;;;;;7.88;2.65;;;13.00;99.90;;;;;;5056863;28;20393;-81
2021/11/01 19:11:25;;;;;;;8.05;3.20;;;10.60;99.90;;;;;;5058190;28;20035;-78
2021/11/01 20:06:12;;;;;;;5.97;2.63;;;10.40;99.90;;;;;;5061635;28;20032;-81
2021/11/01 20:14:06;;;;;;;4.90;1.65;;;11.00;99.90;;;;;;5059125;28;20564;-80
2021/11/01 21:26:14;;;;;;;5.10;1.67;;;9.90;99.90;;;;;;5062033;28;20059;-86
2021/11/01 21:28:40;;;;;;;6.18;2.20;;;9.90;99.90;;;;;;5062568;28;20032;-85
2021/11/01 21:31:09;;;;;;;6.80;2.25;;;9.90;99.90;;;;;;5057286;28;20035;-85
2021/11/01 21:33:38;;;;;;;5.57;1.80;;;10.30;99.90;;;;;;5059102;28;20037;-89
2021/11/01 21:36:11;;;;;;;3.85;1.75;;;9.90;99.90;;;;;;5059592;28;20025;-85
2021/11/01 21:38:36;;;;;;;5.90;1.88;;;9.90;99.90;;;;;;5062104;28;20028;-88
2021/11/01 21:41:03;;;;;;;7.07;2.00;;;10.00;99.90;;;;;;5057902;28;20029;-88
2021/11/01 21:43:32;;;;;;;4.68;1.88;;;9.90;99.90;;;;;;5068994;28;20054;-90
2021/11/01 21:45:58;;;;;;;4.85;2.05;;;10.00;99.90;;;;;;5061004;28;20070;-88
2021/11/01 21:48:24;;;;;;;3.60;1.70;;;10.40;99.90;;;;;;5066724;28;20024;-87
2021/11/01 21:50:50;;;;;;;5.20;2.03;;;9.90;99.90;;;;;;5073174;28;20048;-84
2021/11/01 21:53:21;;;;;;;7.60;1.92;;;9.90;99.90;;;;;;5064523;28;20047;-87
2021/11/01 21:55:46;;;;;;;;;;;9.90;99.90;;;;;;5065829;28;20028;-85
2021/11/01 22:01:40;;;;;;;5.13;2.30;;;9.90;99.90;;;;;;5068551;28;20028;-89
2021/11/01 22:17:30;;;;;;;6.57;2.30;;;12.30;99.90;;;;;;5063155;28;20023;-88
2021/11/01 22:41:24;;;;;;;4.80;2.10;;;9.50;99.90;;;;;;5058484;28;20084;-87
2021/11/01 22:57:12;;;;;;;4.47;1.80;;;10.30;99.90;;;;;;5073479;28;20154;-88
2021/11/01 22:59:39;;;;;;;6.32;2.35;;;9.30;99.90;;;;;;5077123;28;20044;-87
2021/11/01 23:02:05;;;;;;;6.25;2.10;;;9.50;99.90;;;;;;5090571;28;20029;-87
2021/11/01 23:04:46;;;;;;;5.57;2.15;;;9.40;99.90;;;;;;5071537;28;20093;-86
2021/11/01 23:32:11;;;;;;;3.00;1.55;;;9.90;99.90;;;;;;5078684;28;20044;-86
2021/11/01 23:34:36;;;;;;;3.90;1.90;;;9.60;99.90;;;;;;5074397;28;20478;-85
2021/11/01 23:37:05;;;;;;;4.65;2.03;;;9.60;99.90;;;;;;5078080;28;20055;-84
2021/11/01 23:39:31;;;;;;;4.22;2.08;;;9.70;99.90;;;;;;5091596;28;20033;-87
2021/11/01 23:41:56;;;;;;;3.17;1.33;;;11.60;99.90;;;;;;5073897;28;20029;-85
2021/11/01 23:44:22;;;;;;;6.32;1.88;;;;;;;;;;5067815;28;20032;-86
2021/11/01 23:46:48;;;;;;;5.32;1.80;;;;;;;;;;5073793;28;20025;-85
2021/11/01 23:49:15;;;;;;;4.32;1.65;;;;;;;;;;5071403;28;20042;-84
2021/11/01 23:51:48;;;;;;;6.20;1.80;;;;;;;;;;5076655;28;20024;-87
2021/11/01 23:54:35;;;;;;;4.80;1.58;;;9.70;99.90;;;;;;5073117;28;20528;-84
2021/11/01 23:57:01;;;;;;;5.38;1.77;;;9.70;99.90;;;;;;5089566;28;20033;-87
2021/11/01 23:59:27;;;;;;;5.82;1.30;;;9.70;99.90;;;;;;5072805;28;20490;-87
